Time;durP1;ratioP1;P1;durP2;ratioP2;P2;SDS_P1;SDS_P2;PMS_P1;PMS_P2;Temp;Humidity;BMP_temperature;BMP_pressure;BME280_temperature;BME280_humidity;BME280_pressure;Samples;Min_cycle;Max_cycle;Signal;HPM_P1;HPM_P2
2023/12/02 00:01:35;;;;;;;0.20;0.10;;;;;;;;;;4980227;28;20498;-87
2023/12/02 00:04:01;;;;;;;0.25;0.05;;;;;;;;;;4955454;28;20038;-86
2023/12/02 00:06:27;;;;;;;0.20;0.10;;;;;;;;;;4985699;28;20042;-87
2023/12/02 00:08:53;;;;;;;0.20;0.10;;;;;;;;;;4952826;28;20038;-87
2023/12/02 00:11:19;;;;;;;0.20;0.10;;;;;;;;;;4981264;28;20095;-87
2023/12/02 00:13:46;;;;;;;0.20;0.10;;;;;;;;;;4988494;28;20066;-87
2023/12/02 00:16:12;;;;;;;0.20;0.10;;;;;;;;;;4988965;28;20042;-87
2023/12/02 00:18:38;;;;;;;0.20;0.10;;;;;;;;;;4993774;28;20053;-86
2023/12/02 00:21:05;;;;;;;0.20;0.20;;;;;;;;;;4989269;28;20034;-87
2023/12/02 00:23:31;;;;;;;0.32;0.17;;;;;;;;;;4983411;28;20046;-87
2023/12/02 00:25:58;;;;;;;0.20;0.10;;;;;;;;;;4980335;28;20201;-87
2023/12/02 00:28:24;;;;;;;0.20;0.10;;;;;;;;;;4950849;28;20034;-86
2023/12/02 00:30:53;;;;;;;0.22;0.22;;;;;;;;;;4982456;28;20545;-87
2023/12/02 00:33:19;;;;;;;0.20;0.10;;;;;;;;;;4992657;28;20065;-86
2023/12/02 00:35:45;;;;;;;0.57;0.52;;;;;;;;;;4961439;28;20038;-87
2023/12/02 00:38:12;;;;;;;0.20;0.10;;;;;;;;;;4986718;28;20042;-86
2023/12/02 00:40:38;;;;;;;0.20;0.10;;;;;;;;;;5001099;28;20046;-87
2023/12/02 00:43:04;;;;;;;0.20;0.10;;;;;;;;;;4985168;28;20053;-87
2023/12/02 00:45:33;;;;;;;0.20;0.10;;;;;;;;;;4957289;28;20042;-87
2023/12/02 00:47:59;;;;;;;0.20;0.10;;;;;;;;;;5001733;28;20146;-86
2023/12/02 00:50:25;;;;;;;0.20;0.10;;;;;;;;;;4956993;28;20040;-86
2023/12/02 00:52:52;;;;;;;0.25;0.20;;;;;;;;;;4985381;28;20034;-86
2023/12/02 00:55:20;;;;;;;0.98;0.35;;;;;;;;;;5001591;28;20046;-88
2023/12/02 00:57:49;;;;;;;0.20;0.10;;;;;;;;;;4986858;28;20046;-86
2023/12/02 01:00:23;;;;;;;0.20;0.10;;;;;;;;;;4987592;28;20062;-87
2023/12/02 01:02:51;;;;;;;0.20;0.10;;;;;;;;;;4957866;28;20034;-86
2023/12/02 01:05:21;;;;;;;0.35;0.20;;;;;;;;;;4957954;28;22293;-86
2023/12/02 01:07:49;;;;;;;0.20;0.10;;;;;;;;;;4988482;28;20551;-88
2023/12/02 01:10:21;;;;;;;0.20;0.10;;;;;;;;;;4982704;28;20035;-86
2023/12/02 01:12:48;;;;;;;0.20;0.10;;;;;;;;;;5009048;28;20058;-87
2023/12/02 01:15:14;;;;;;;0.50;0.32;;;;;;;;;;4988083;28;20053;-86
2023/12/02 01:17:41;;;;;;;0.20;0.20;;;;;;;;;;4985008;28;20035;-87
2023/12/02 01:20:07;;;;;;;0.95;0.30;;;;;;;;;;4956447;28;20805;-86
2023/12/02 01:22:36;;;;;;;0.20;0.10;;;;;;;;;;4957657;28;20126;-87
2023/12/02 01:25:02;;;;;;;0.20;0.10;;;;;;;;;;5000497;28;20109;-88
2023/12/02 01:27:31;;;;;;;0.20;0.10;;;;;;;;;;4987591;28;20038;-86
2023/12/02 01:30:03;;;;;;;0.73;0.73;;;;;;;;;;4983608;28;20104;-86
2023/12/02 01:32:29;;;;;;;0.20;0.10;;;;;;;;;;4982702;28;20026;-88
2023/12/02 01:34:58;;;;;;;0.28;0.20;;;;;;;;;;4983698;28;20041;-86
2023/12/02 01:37:24;;;;;;;0.20;0.10;;;;;;;;;;4986930;28;20038;-86
2023/12/02 01:39:52;;;;;;;0.20;0.10;;;;;;;;;;4983138;28;20034;-86
2023/12/02 01:42:19;;;;;;;0.20;0.10;;;;;;;;;;4954833;28;20050;-86
2023/12/02 01:44:45;;;;;;;0.20;0.10;;;;;;;;;;4969120;28;20038;-88
2023/12/02 01:47:11;;;;;;;0.20;0.10;;;;;;;;;;4983225;28;20031;-87
2023/12/02 01:49:41;;;;;;;0.73;0.35;;;;;;;;;;4951685;28;20089;-86
2023/12/02 01:52:14;;;;;;;0.20;0.10;;;;;;;;;;4962491;28;20458;-87
2023/12/02 01:54:46;;;;;;;0.20;0.10;;;;;;;;;;4956733;28;20375;-88
2023/12/02 01:57:14;;;;;;;0.63;0.32;;;;;;;;;;5001880;28;20043;-86
2023/12/02 01:59:45;;;;;;;0.20;0.10;;;;;;;;;;4997742;28;21053;-86
2023/12/02 02:02:11;;;;;;;0.20;0.10;;;;;;;;;;4985056;28;20124;-87
2023/12/02 02:04:37;;;;;;;0.20;0.10;;;;;;;;;;4987251;28;20042;-86
2023/12/02 02:07:03;;;;;;;0.20;0.10;;;;;;;;;;4983835;28;20039;-87
2023/12/02 02:09:44;;;;;;;0.20;0.10;;;;;;;;;;4982568;28;20439;-85
2023/12/02 02:12:13;;;;;;;0.20;0.10;;;;;;;;;;4988500;28;20085;-87
2023/12/02 02:14:44;;;;;;;0.20;0.10;;;;;;;;;;4980424;28;20046;-86
2023/12/02 02:17:11;;;;;;;0.20;0.10;;;;;;;;;;4952139;28;20043;-85
2023/12/02 02:19:37;;;;;;;0.20;0.20;;;;;;;;;;4953574;28;20437;-86
2023/12/02 02:22:03;;;;;;;0.20;0.10;;;;;;;;;;4974178;28;20034;-85
2023/12/02 02:24:32;;;;;;;0.20;0.20;;;;;;;;;;4987382;28;20041;-86
2023/12/02 02:26:58;;;;;;;0.35;0.25;;;;;;;;;;4985163;28;20042;-86
2023/12/02 02:29:24;;;;;;;0.20;0.10;;;;;;;;;;5000639;28;20042;-88
2023/12/02 02:31:50;;;;;;;0.20;0.10;;;;;;;;;;4958944;28;20034;-85
2023/12/02 02:34:17;;;;;;;0.20;0.00;;;;;;;;;;4996652;28;20576;-86
2023/12/02 02:36:48;;;;;;;0.20;0.20;;;;;;;;;;4999189;28;20054;-86
2023/12/02 02:39:14;;;;;;;0.20;0.10;;;;;;;;;;4985473;28;20050;-86
2023/12/02 02:41:46;;;;;;;0.20;0.10;;;;;;;;;;4988641;28;20050;-85
2023/12/02 02:44:12;;;;;;;0.20;0.10;;;;;;;;;;4988558;28;20042;-87
2023/12/02 02:46:51;;;;;;;0.20;0.10;;;;;;;;;;4986999;28;20511;-88
2023/12/02 02:49:20;;;;;;;0.20;0.10;;;;;;;;;;4988231;28;20055;-88
2023/12/02 02:51:46;;;;;;;0.20;0.10;;;;;;;;;;4957357;28;20507;-88
2023/12/02 02:54:18;;;;;;;0.20;0.10;;;;;;;;;;4960605;28;20042;-87
2023/12/02 02:56:44;;;;;;;0.20;0.10;;;;;;;;;;4962996;28;20103;-85
2023/12/02 02:59:10;;;;;;;0.20;0.10;;;;;;;;;;4964546;28;20053;-86
2023/12/02 03:01:38;;;;;;;0.20;0.10;;;;;;;;;;4992531;28;20082;-86
2023/12/02 03:04:06;;;;;;;0.57;0.50;;;;;;;;;;4997739;28;20762;-86
2023/12/02 03:06:32;;;;;;;0.90;0.45;;;;;;;;;;4948617;28;20415;-86
2023/12/02 03:08:58;;;;;;;0.40;0.35;;;;;;;;;;4953757;28;20495;-86
2023/12/02 03:11:24;;;;;;;0.20;0.17;;;;;;;;;;4995439;28;20070;-86
2023/12/02 03:13:53;;;;;;;0.20;0.10;;;;;;;;;;4949809;28;20034;-86
2023/12/02 03:16:22;;;;;;;0.20;0.10;;;;;;;;;;4949478;28;20506;-86
2023/12/02 03:18:48;;;;;;;0.20;0.10;;;;;;;;;;4982092;28;20108;-86
2023/12/02 03:21:14;;;;;;;0.20;0.10;;;;;;;;;;4992357;28;20430;-86
2023/12/02 03:23:49;;;;;;;0.20;0.10;;;;;;;;;;4995976;28;20685;-88
2023/12/02 03:26:17;;;;;;;0.20;0.10;;;;;;;;;;4962041;28;20558;-87
2023/12/02 03:28:43;;;;;;;0.25;0.15;;;;;;;;;;4980574;28;20046;-87
2023/12/02 03:31:11;;;;;;;0.20;0.20;;;;;;;;;;4982207;28;20034;-87
2023/12/02 03:33:40;;;;;;;0.20;0.10;;;;;;;;;;4977781;28;20042;-85
2023/12/02 03:36:12;;;;;;;0.20;0.10;;;;;;;;;;4994314;28;20058;-88
2023/12/02 03:38:40;;;;;;;0.20;0.10;;;;;;;;;;4983106;28;20055;-86
2023/12/02 03:41:10;;;;;;;0.20;0.10;;;;;;;;;;4998797;28;20465;-87
2023/12/02 03:43:39;;;;;;;0.20;0.10;;;;;;;;;;4963567;28;20053;-87
2023/12/02 03:46:08;;;;;;;0.20;0.10;;;;;;;;;;4954207;28;20093;-88
2023/12/02 03:48:37;;;;;;;0.20;0.10;;;;;;;;;;4987343;28;20039;-88
2023/12/02 03:51:04;;;;;;;0.30;0.30;;;;;;;;;;4989117;28;20088;-88
2023/12/02 03:53:53;;;;;;;0.20;0.10;;;;;;;;;;4996709;28;20387;-87
2023/12/02 03:56:20;;;;;;;0.20;0.10;;;;;;;;;;4964473;28;20050;-88
2023/12/02 03:58:46;;;;;;;0.35;0.35;;;;;;;;;;4984117;28;20499;-88
2023/12/02 04:01:18;;;;;;;0.20;0.10;;;;;;;;;;4948110;28;20043;-87
2023/12/02 04:03:48;;;;;;;0.20;0.10;;;;;;;;;;4950085;28;20080;-87
2023/12/02 04:06:17;;;;;;;0.20;0.10;;;;;;;;;;4976671;28;20104;-87
2023/12/02 04:08:43;;;;;;;0.20;0.10;;;;;;;;;;4997237;28;21256;-87
2023/12/02 04:11:10;;;;;;;0.20;0.00;;;;;;;;;;4977369;28;20046;-87
2023/12/02 04:13:36;;;;;;;0.20;0.20;;;;;;;;;;4983636;28;20046;-87
2023/12/02 04:16:02;;;;;;;0.63;0.30;;;;;;;;;;4982391;28;20057;-87
2023/12/02 04:18:34;;;;;;;0.20;0.10;;;;;;;;;;4974554;28;20046;-87
2023/12/02 04:21:05;;;;;;;0.20;0.10;;;;;;;;;;4956296;28;20410;-88
2023/12/02 04:23:35;;;;;;;0.20;0.10;;;;;;;;;;4980443;28;20050;-87
2023/12/02 04:26:06;;;;;;;0.20;0.10;;;;;;;;;;4980483;28;20042;-86
2023/12/02 04:28:35;;;;;;;0.20;0.10;;;;;;;;;;4976466;28;20046;-87
2023/12/02 04:31:04;;;;;;;0.20;0.10;;;;;;;;;;4974360;28;20081;-88
2023/12/02 04:33:30;;;;;;;0.20;0.10;;;;;;;;;;4997361;28;20042;-87
2023/12/02 04:35:59;;;;;;;0.20;0.10;;;;;;;;;;4980632;28;20046;-87
2023/12/02 04:38:25;;;;;;;0.20;0.10;;;;;;;;;;4947163;28;20038;-86
2023/12/02 04:40:51;;;;;;;0.20;0.10;;;;;;;;;;4989567;28;20408;-87
2023/12/02 04:43:20;;;;;;;0.20;0.10;;;;;;;;;;4976974;28;20042;-85
2023/12/02 04:45:46;;;;;;;0.20;0.10;;;;;;;;;;4978563;28;20126;-87
2023/12/02 04:48:12;;;;;;;0.20;0.10;;;;;;;;;;4977734;28;20053;-86
2023/12/02 04:50:38;;;;;;;0.20;0.03;;;;;;;;;;4977240;28;20071;-86
2023/12/02 04:53:04;;;;;;;0.20;0.10;;;;;;;;;;4993908;28;20038;-86
2023/12/02 04:55:30;;;;;;;0.20;0.10;;;;;;;;;;4960594;28;20050;-86
2023/12/02 04:58:01;;;;;;;1.17;0.52;;;;;;;;;;4975358;28;20038;-86
2023/12/02 05:00:27;;;;;;;0.20;0.10;;;;;;;;;;4959989;28;20056;-86
2023/12/02 05:02:53;;;;;;;0.75;0.40;;;;;;;;;;4994146;28;20049;-86
2023/12/02 05:05:20;;;;;;;0.20;0.10;;;;;;;;;;4980076;28;20058;-86
2023/12/02 05:07:46;;;;;;;0.20;0.20;;;;;;;;;;4983270;28;20050;-85
2023/12/02 05:10:12;;;;;;;0.20;0.10;;;;;;;;;;4994490;28;20555;-89
2023/12/02 05:12:38;;;;;;;0.20;0.10;;;;;;;;;;4985030;28;20031;-84
2023/12/02 05:15:05;;;;;;;0.20;0.10;;;;;;;;;;4979689;28;20133;-83
2023/12/02 05:17:32;;;;;;;0.20;0.10;;;;;;;;;;4980702;28;20058;-86
2023/12/02 05:19:58;;;;;;;0.20;0.10;;;;;;;;;;4995391;28;20043;-85
2023/12/02 05:22:26;;;;;;;0.20;0.10;;;;;;;;;;4977427;28;20070;-87
2023/12/02 05:24:55;;;;;;;0.20;0.10;;;;;;;;;;4944356;28;20515;-86
2023/12/02 05:27:21;;;;;;;0.20;0.00;;;;;;;;;;4981581;28;20129;-86
2023/12/02 05:29:53;;;;;;;0.20;0.10;;;;;;;;;;4992619;28;20042;-87
2023/12/02 05:32:19;;;;;;;0.20;0.10;;;;;;;;;;4980136;28;20496;-86
2023/12/02 05:34:45;;;;;;;0.77;0.25;;;;;;;;;;4960886;28;20126;-87
2023/12/02 05:37:11;;;;;;;0.38;0.38;;;;;;;;;;4953616;28;20088;-85
2023/12/02 05:39:37;;;;;;;0.20;0.10;;;;;;;;;;4982041;28;20078;-86
2023/12/02 05:42:03;;;;;;;0.20;0.10;;;;;;;;;;4983237;28;20042;-86
2023/12/02 05:44:29;;;;;;;0.40;0.30;;;;;;;;;;4982136;28;20026;-84
2023/12/02 05:46:55;;;;;;;0.20;0.10;;;;;;;;;;4955783;28;20094;-86
2023/12/02 05:49:21;;;;;;;0.20;0.10;;;;;;;;;;4951981;28;20092;-85
2023/12/02 05:51:48;;;;;;;0.20;0.15;;;;;;;;;;4997860;28;20494;-84
2023/12/02 05:54:14;;;;;;;0.20;0.10;;;;;;;;;;4955044;28;20045;-84
2023/12/02 05:56:40;;;;;;;0.20;0.10;;;;;;;;;;4976115;28;20034;-85
2023/12/02 05:59:06;;;;;;;0.30;0.20;;;;;;;;;;4962665;28;20685;-85
2023/12/02 06:01:35;;;;;;;0.20;0.10;;;;;;;;;;4981546;28;20050;-85
2023/12/02 06:04:01;;;;;;;0.20;0.10;;;;;;;;;;4953583;28;20495;-84
2023/12/02 06:06:27;;;;;;;0.52;0.52;;;;;;;;;;4983257;28;20054;-84
2023/12/02 06:08:53;;;;;;;0.20;0.10;;;;;;;;;;4968776;28;20046;-85
2023/12/02 06:11:19;;;;;;;0.20;0.10;;;;;;;;;;4995178;28;20034;-84
2023/12/02 06:13:45;;;;;;;0.20;0.10;;;;;;;;;;4966797;28;20046;-83
2023/12/02 06:16:11;;;;;;;0.20;0.10;;;;;;;;;;5000372;28;20053;-84
2023/12/02 06:18:37;;;;;;;0.20;0.20;;;;;;;;;;4976387;28;20042;-83
2023/12/02 06:21:03;;;;;;;0.30;0.28;;;;;;;;;;4996833;28;20462;-83
2023/12/02 06:23:29;;;;;;;0.20;0.10;;;;;;;;;;4986433;28;20118;-83
2023/12/02 06:25:55;;;;;;;0.20;0.10;;;;;;;;;;4982463;28;20042;-83
2023/12/02 06:28:21;;;;;;;0.30;0.20;;;;;;;;;;4982701;28;20069;-85
2023/12/02 06:30:47;;;;;;;0.30;0.20;;;;;;;;;;4974302;28;20200;-84
2023/12/02 06:33:13;;;;;;;0.20;0.10;;;;;;;;;;4978230;28;20042;-83
2023/12/02 06:35:39;;;;;;;0.20;0.10;;;;;;;;;;4992059;28;20042;-85
2023/12/02 06:38:05;;;;;;;0.20;0.10;;;;;;;;;;4973598;28;20089;-85
2023/12/02 06:40:31;;;;;;;0.20;0.10;;;;;;;;;;4953384;28;20510;-83
2023/12/02 06:42:57;;;;;;;0.20;0.10;;;;;;;;;;4944576;28;20038;-82
2023/12/02 06:45:23;;;;;;;0.20;0.10;;;;;;;;;;4947596;28;20042;-82
2023/12/02 06:47:49;;;;;;;0.20;0.10;;;;;;;;;;4980173;28;20153;-84
2023/12/02 06:50:15;;;;;;;0.55;0.40;;;;;;;;;;5005873;28;20129;-82
2023/12/02 06:52:41;;;;;;;0.40;0.40;;;;;;;;;;4990332;28;20057;-83
2023/12/02 06:55:09;;;;;;;0.20;0.10;;;;;;;;;;4987631;28;20207;-83
2023/12/02 06:57:35;;;;;;;0.28;0.25;;;;;;;;;;4964898;28;20053;-83
2023/12/02 07:00:05;;;;;;;0.20;0.10;;;;;;;;;;4986888;28;20062;-81
2023/12/02 07:02:31;;;;;;;0.20;0.10;;;;;;;;;;5012123;28;20038;-83
2023/12/02 07:04:57;;;;;;;0.20;0.10;;;;;;;;;;5012312;28;20038;-81
2023/12/02 07:07:22;;;;;;;0.20;0.10;;;;;;;;;;4993246;28;20038;-82
2023/12/02 07:09:48;;;;;;;0.20;0.10;;;;;;;;;;4999824;28;20037;-83
2023/12/02 07:12:15;;;;;;;0.20;0.10;;;;;;;;;;4997185;28;20042;-82
2023/12/02 07:14:41;;;;;;;0.20;0.10;;;;;;;;;;4980248;28;20080;-83
2023/12/02 07:17:07;;;;;;;0.20;0.10;;;;;;;;;;4981576;28;20042;-83
2023/12/02 07:19:33;;;;;;;1.02;1.02;;;;;;;;;;4964196;28;20042;-82
2023/12/02 07:21:59;;;;;;;0.20;0.20;;;;;;;;;;4997545;28;20084;-83
2023/12/02 07:24:24;;;;;;;1.95;0.68;;;;;;;;;;4997376;28;20042;-82
2023/12/02 07:26:50;;;;;;;0.20;0.00;;;;;;;;;;4996380;28;20415;-85
2023/12/02 07:29:16;;;;;;;0.20;0.10;;;;;;;;;;4961907;28;20053;-85
2023/12/02 07:31:44;;;;;;;0.20;0.10;;;;;;;;;;4982502;28;20045;-83
2023/12/02 07:34:11;;;;;;;0.20;0.10;;;;;;;;;;4954167;28;20042;-85
2023/12/02 07:36:37;;;;;;;0.20;0.10;;;;;;;;;;4996026;28;20232;-85
2023/12/02 07:39:03;;;;;;;0.20;0.10;;;;;;;;;;4986352;28;20053;-85
2023/12/02 07:41:29;;;;;;;0.20;0.10;;;;;;;;;;4979894;28;20042;-84
2023/12/02 07:43:55;;;;;;;0.20;0.10;;;;;;;;;;4954897;28;20041;-83
2023/12/02 07:46:21;;;;;;;0.20;0.10;;;;;;;;;;4992765;28;20514;-83
2023/12/02 07:48:47;;;;;;;0.20;0.10;;;;;;;;;;4997303;28;20131;-84
2023/12/02 07:51:13;;;;;;;0.20;0.20;;;;;;;;;;4997420;28;20061;-83
2023/12/02 08:01:00;;;;;;;0.20;0.10;;;;;;;;;;4905219;29;20087;-88
2023/12/02 08:04:19;;;;;;;;;;;;;;;;;;;;;
2023/12/02 08:07:46;;;;;;;;;;;;;;;;;;;;;
2023/12/02 08:58:51;;;;;;;0.20;0.10;;;;;;;;;;4919555;28;20058;-86
2023/12/02 09:01:50;;;;;;;;;;;;;;;;;;;;;
2023/12/02 09:08:14;;;;;;;0.20;0.10;;;;;;;;;;4946549;23;20505;-84
2023/12/02 09:10:41;;;;;;;0.70;0.38;;;;;;;;;;4945014;28;20499;-84
2023/12/02 09:13:26;;;;;;;0.20;0.10;;;;;;;;;;4948543;28;20042;-84
2023/12/02 09:15:52;;;;;;;0.20;0.10;;;;;;;;;;4956273;28;20037;-84
2023/12/02 09:18:27;;;;;;;0.50;0.43;;;;;;;;;;4953728;28;20034;-83
2023/12/02 09:20:55;;;;;;;0.20;0.10;;;;;;;;;;4951709;28;20494;-84
2023/12/02 09:23:21;;;;;;;0.20;0.10;;;;;;;;;;4940663;28;20054;-84
2023/12/02 09:25:48;;;;;;;0.20;0.10;;;;;;;;;;4968646;28;20045;-84
2023/12/02 09:28:17;;;;;;;0.50;0.30;;;;;;;;;;4981461;28;20055;-86
2023/12/02 09:30:46;;;;;;;0.20;0.10;;;;;;;;;;4968206;28;20637;-85
2023/12/02 09:33:12;;;;;;;0.20;0.20;;;;;;;;;;4945538;28;20164;-86
2023/12/02 09:35:38;;;;;;;0.20;0.10;;;;;;;;;;4960149;28;20043;-84
2023/12/02 09:38:04;;;;;;;0.38;0.08;;;;;;;;;;4973810;28;20128;-85
2023/12/02 09:40:40;;;;;;;0.20;0.10;;;;;;;;;;4976662;28;20046;-86
2023/12/02 09:43:06;;;;;;;0.20;0.20;;;;;;;;;;4983613;28;20050;-86
2023/12/02 09:45:35;;;;;;;0.20;0.10;;;;;;;;;;4938353;28;20058;-86
2023/12/02 09:48:16;;;;;;;0.20;0.10;;;;;;;;;;4945396;28;20042;-84
2023/12/02 09:50:52;;;;;;;0.20;0.10;;;;;;;;;;4989556;28;20409;-86
2023/12/02 09:53:30;;;;;;;0.70;0.30;;;;;;;;;;4956579;28;20042;-85
2023/12/02 09:56:00;;;;;;;0.20;0.10;;;;;;;;;;4982469;28;20077;-84
2023/12/02 09:58:52;;;;;;;0.40;0.40;;;;;;;;;;4977559;28;20043;-82
2023/12/02 10:01:18;;;;;;;0.20;0.10;;;;;;;;;;4947134;28;20062;-84
2023/12/02 10:03:44;;;;;;;0.20;0.20;;;;;;;;;;4984540;28;20043;-85
2023/12/02 10:06:24;;;;;;;1.88;0.32;;;;;;;;;;4960332;28;20069;-85
2023/12/02 10:09:01;;;;;;;0.20;0.10;;;;;;;;;;4963420;28;20054;-84
2023/12/02 10:11:30;;;;;;;0.20;0.10;;;;;;;;;;4955123;28;20038;-85
2023/12/02 10:14:00;;;;;;;0.20;0.10;;;;;;;;;;4946260;28;20046;-83
2023/12/02 10:16:30;;;;;;;0.20;0.10;;;;;;;;;;4951429;28;20047;-84
2023/12/02 10:18:58;;;;;;;0.20;0.03;;;;;;;;;;4966020;28;20043;-85
2023/12/02 10:21:27;;;;;;;0.20;0.10;;;;;;;;;;4951053;28;20041;-84
2023/12/02 10:24:05;;;;;;;0.20;0.10;;;;;;;;;;4985463;28;20042;-86
2023/12/02 10:26:40;;;;;;;0.20;0.10;;;;;;;;;;4982528;28;20463;-84
2023/12/02 10:29:10;;;;;;;0.20;0.10;;;;;;;;;;4984657;28;20043;-86
2023/12/02 10:31:39;;;;;;;0.20;0.10;;;;;;;;;;4950598;28;20038;-84
2023/12/02 10:34:24;;;;;;;0.20;0.20;;;;;;;;;;4983501;28;20089;-84
2023/12/02 10:36:52;;;;;;;0.20;0.00;;;;;;;;;;4978624;28;20381;-85
2023/12/02 10:39:26;;;;;;;0.20;0.20;;;;;;;;;;4953530;28;20755;-85
2023/12/02 10:41:54;;;;;;;0.20;0.10;;;;;;;;;;4956856;28;20043;-84
2023/12/02 10:44:21;;;;;;;0.20;0.10;;;;;;;;;;4956520;28;20034;-85
2023/12/02 10:46:48;;;;;;;0.20;0.20;;;;;;;;;;4930188;28;20038;-85
2023/12/02 10:49:15;;;;;;;0.20;0.10;;;;;;;;;;4965201;28;20127;-85
2023/12/02 10:51:42;;;;;;;0.20;0.10;;;;;;;;;;4977626;28;20047;-85
2023/12/02 10:54:09;;;;;;;0.20;0.10;;;;;;;;;;4982081;28;20819;-86
2023/12/02 10:56:36;;;;;;;0.20;0.10;;;;;;;;;;4938110;28;20061;-85
2023/12/02 10:59:03;;;;;;;0.20;0.10;;;;;;;;;;4930016;28;20522;-85
2023/12/02 11:01:37;;;;;;;0.20;0.10;;;;;;;;;;4932080;28;20066;-84
2023/12/02 11:04:06;;;;;;;0.30;0.28;;;;;;;;;;4932679;28;20142;-85
2023/12/02 11:06:37;;;;;;;0.47;0.47;;;;;;;;;;4956089;28;20038;-86
2023/12/02 11:09:03;;;;;;;0.20;0.10;;;;;;;;;;4966780;28;20046;-85
2023/12/02 11:11:52;;;;;;;1.17;0.40;;;;;;;;;;4944555;28;20393;-84
2023/12/02 11:14:18;;;;;;;0.20;0.10;;;;;;;;;;4938276;28;20078;-85
2023/12/02 11:17:02;;;;;;;0.20;0.10;;;;;;;;;;4971765;28;20140;-85
2023/12/02 11:19:45;;;;;;;0.20;0.10;;;;;;;;;;4965576;28;20151;-84
2023/12/02 11:22:11;;;;;;;0.20;0.10;;;;;;;;;;4945200;28;20418;-85
2023/12/02 11:25:10;;;;;;;0.20;0.17;;;;;;;;;;4966050;28;20042;-86
2023/12/02 11:28:09;;;;;;;0.20;0.10;;;;;;;;;;4907928;28;20508;-85
2023/12/02 11:30:35;;;;;;;0.20;0.10;;;;;;;;;;4914696;28;20039;-86
2023/12/02 11:33:16;;;;;;;0.20;0.10;;;;;;;;;;4945987;28;20046;-84
2023/12/02 11:35:50;;;;;;;0.20;0.10;;;;;;;;;;4969562;28;20558;-86
2023/12/02 11:38:18;;;;;;;0.20;0.10;;;;;;;;;;4949897;28;20041;-86
2023/12/02 11:40:52;;;;;;;0.35;0.17;;;;;;;;;;4965655;28;20097;-86
2023/12/02 11:43:26;;;;;;;0.20;0.10;;;;;;;;;;4946825;28;20042;-83
2023/12/02 11:46:02;;;;;;;0.20;0.10;;;;;;;;;;4950291;28;20049;-83
2023/12/02 11:48:37;;;;;;;0.20;0.10;;;;;;;;;;4953904;28;20052;-84
2023/12/02 11:51:26;;;;;;;0.20;0.10;;;;;;;;;;4953513;28;20071;-85
2023/12/02 11:54:09;;;;;;;0.20;0.10;;;;;;;;;;4979302;28;20041;-80
2023/12/02 11:56:35;;;;;;;0.20;0.10;;;;;;;;;;4935420;28;20039;-84
2023/12/02 11:59:06;;;;;;;0.85;0.68;;;;;;;;;;4978084;28;20130;-85
2023/12/02 12:01:44;;;;;;;0.20;0.10;;;;;;;;;;4964567;28;20038;-84
2023/12/02 12:04:16;;;;;;;0.20;0.10;;;;;;;;;;4969027;28;20038;-84
2023/12/02 12:06:53;;;;;;;0.20;0.10;;;;;;;;;;4929099;28;20043;-83
2023/12/02 12:09:23;;;;;;;0.20;0.10;;;;;;;;;;4942659;28;20041;-84
2023/12/02 12:11:54;;;;;;;0.20;0.10;;;;;;;;;;4949777;28;20038;-83
2023/12/02 12:14:20;;;;;;;0.30;0.20;;;;;;;;;;4934800;28;20094;-84
2023/12/02 12:16:46;;;;;;;0.20;0.10;;;;;;;;;;4952353;28;20480;-81
2023/12/02 12:19:13;;;;;;;0.20;0.10;;;;;;;;;;4952556;28;20416;-82
2023/12/02 12:21:41;;;;;;;0.20;0.10;;;;;;;;;;4952871;28;20147;-83
2023/12/02 12:24:07;;;;;;;0.75;0.57;;;;;;;;;;4981055;28;20039;-83
2023/12/02 12:26:33;;;;;;;0.20;0.10;;;;;;;;;;4982645;28;20035;-82
2023/12/02 12:28:59;;;;;;;0.20;0.10;;;;;;;;;;4941279;28;20042;-83
2023/12/02 12:31:29;;;;;;;0.20;0.10;;;;;;;;;;4958987;28;20090;-82
2023/12/02 12:33:55;;;;;;;0.22;0.22;;;;;;;;;;4949136;28;20031;-83
2023/12/02 12:36:28;;;;;;;0.20;0.10;;;;;;;;;;4952860;28;20050;-83
2023/12/02 12:38:56;;;;;;;0.20;0.10;;;;;;;;;;4951703;28;20043;-82
2023/12/02 12:41:22;;;;;;;1.42;0.30;;;;;;;;;;4982335;28;20255;-82
2023/12/02 12:43:49;;;;;;;0.20;0.10;;;;;;;;;;4946641;28;20894;-83
2023/12/02 12:46:16;;;;;;;0.20;0.10;;;;;;;;;;4948566;28;20074;-83
2023/12/02 12:48:44;;;;;;;0.20;0.10;;;;;;;;;;4955006;28;20093;-82
2023/12/02 12:51:12;;;;;;;0.20;0.20;;;;;;;;;;4953055;28;20073;-83
2023/12/02 12:53:41;;;;;;;0.20;0.10;;;;;;;;;;4957580;28;20049;-84
2023/12/02 12:56:11;;;;;;;1.67;0.85;;;;;;;;;;4985241;28;20077;-84
2023/12/02 12:58:54;;;;;;;0.20;0.10;;;;;;;;;;4972011;28;20034;-84
2023/12/02 13:01:22;;;;;;;0.20;0.10;;;;;;;;;;4962359;28;20086;-85
2023/12/02 13:03:52;;;;;;;0.20;0.10;;;;;;;;;;4932861;28;20042;-86
2023/12/02 13:06:24;;;;;;;0.20;0.10;;;;;;;;;;4973826;28;20066;-85
2023/12/02 13:09:13;;;;;;;0.65;0.28;;;;;;;;;;4931642;28;21648;-83
2023/12/02 13:12:04;;;;;;;0.20;0.10;;;;;;;;;;4934877;28;20589;-85
2023/12/02 13:14:35;;;;;;;0.20;0.10;;;;;;;;;;4970078;28;20487;-84
2023/12/02 13:17:02;;;;;;;0.20;0.10;;;;;;;;;;4971176;28;20170;-85
2023/12/02 13:19:29;;;;;;;0.20;0.10;;;;;;;;;;4949977;28;20077;-85
2023/12/02 13:21:57;;;;;;;0.20;0.10;;;;;;;;;;4962836;28;20080;-84
2023/12/02 13:24:23;;;;;;;0.20;0.10;;;;;;;;;;4945597;28;20049;-84
2023/12/02 13:26:50;;;;;;;0.20;0.10;;;;;;;;;;4964176;28;20031;-84
2023/12/02 13:29:18;;;;;;;0.20;0.10;;;;;;;;;;4941096;28;20071;-85
2023/12/02 13:31:44;;;;;;;0.20;0.10;;;;;;;;;;4941514;28;20074;-85
2023/12/02 13:34:25;;;;;;;0.20;0.10;;;;;;;;;;4961839;28;20125;-85
2023/12/02 13:36:53;;;;;;;0.20;0.00;;;;;;;;;;4963398;28;21762;-85
2023/12/02 13:39:19;;;;;;;0.20;0.10;;;;;;;;;;4975752;28;20046;-84
2023/12/02 13:41:46;;;;;;;0.20;0.10;;;;;;;;;;4962624;28;20531;-85
2023/12/02 13:44:13;;;;;;;0.20;0.10;;;;;;;;;;4959144;28;20047;-86
2023/12/02 13:47:04;;;;;;;0.20;0.10;;;;;;;;;;4938669;28;20093;-85
2023/12/02 13:49:46;;;;;;;0.20;0.10;;;;;;;;;;4923351;28;20074;-85
2023/12/02 13:52:30;;;;;;;0.20;0.10;;;;;;;;;;4949046;28;20039;-85
2023/12/02 13:55:21;;;;;;;0.20;0.08;;;;;;;;;;4943902;28;20050;-85
2023/12/02 13:57:56;;;;;;;0.20;0.10;;;;;;;;;;4968229;28;20447;-85
2023/12/02 14:00:32;;;;;;;0.20;0.10;;;;;;;;;;4925063;28;20030;-85
2023/12/02 14:03:02;;;;;;;0.20;0.15;;;;;;;;;;4948725;28;20567;-86
2023/12/02 14:05:31;;;;;;;0.20;0.10;;;;;;;;;;4942615;28;20393;-84
2023/12/02 14:08:00;;;;;;;0.20;0.10;;;;;;;;;;4943555;28;20074;-85
2023/12/02 14:10:27;;;;;;;0.20;0.10;;;;;;;;;;4949796;28;20503;-84
2023/12/02 14:13:05;;;;;;;0.20;0.10;;;;;;;;;;4945563;28;20039;-84
2023/12/02 14:15:34;;;;;;;0.20;0.10;;;;;;;;;;4977497;28;20097;-85
2023/12/02 14:18:15;;;;;;;0.20;0.10;;;;;;;;;;4962588;28;20501;-86
2023/12/02 14:20:53;;;;;;;0.20;0.10;;;;;;;;;;4946733;28;20035;-84
2023/12/02 14:23:45;;;;;;;0.20;0.10;;;;;;;;;;4949786;28;20039;-84
2023/12/02 14:26:23;;;;;;;0.20;0.10;;;;;;;;;;4931606;28;20315;-84
2023/12/02 14:28:55;;;;;;;0.20;0.10;;;;;;;;;;4948925;28;20122;-84
2023/12/02 14:31:29;;;;;;;0.20;0.10;;;;;;;;;;4984420;28;20037;-84
2023/12/02 14:34:03;;;;;;;0.20;0.08;;;;;;;;;;4966219;28;20043;-85
2023/12/02 14:36:38;;;;;;;0.20;0.10;;;;;;;;;;4949812;28;20062;-83
2023/12/02 14:39:04;;;;;;;1.00;0.50;;;;;;;;;;4952805;28;20106;-84
2023/12/02 14:41:49;;;;;;;0.20;0.10;;;;;;;;;;4949525;28;20121;-84
2023/12/02 14:44:26;;;;;;;0.75;0.75;;;;;;;;;;4961697;28;20452;-82
2023/12/02 14:47:10;;;;;;;0.20;0.10;;;;;;;;;;4955450;28;20066;-84
2023/12/02 14:49:42;;;;;;;0.20;0.05;;;;;;;;;;4971407;28;21118;-84
2023/12/02 14:52:09;;;;;;;0.20;0.10;;;;;;;;;;4983067;28;20073;-83
2023/12/02 14:54:35;;;;;;;0.20;0.10;;;;;;;;;;4953990;28;20031;-83
2023/12/02 14:57:21;;;;;;;0.20;0.00;;;;;;;;;;4947388;28;20094;-84
2023/12/02 14:59:55;;;;;;;1.02;0.65;;;;;;;;;;4931937;28;20385;-84
2023/12/02 15:02:36;;;;;;;0.22;0.13;;;;;;;;;;4951796;28;20038;-84
2023/12/02 15:05:03;;;;;;;0.20;0.10;;;;;;;;;;4945272;28;20051;-83
2023/12/02 15:07:33;;;;;;;0.73;0.50;;;;;;;;;;4981962;28;20035;-84
2023/12/02 15:22:46;;;;;;;0.50;0.50;;;;;;;;;;4934268;28;20524;-87
2023/12/02 15:39:43;;;;;;;0.20;0.10;;;;;;;;;;4842652;29;20147;-87
2023/12/02 15:42:21;;;;;;;0.20;0.10;;;;;;;;;;4911534;29;20047;-88
2023/12/02 15:44:54;;;;;;;0.20;0.10;;;;;;;;;;4946052;28;20692;-86
2023/12/02 15:47:52;;;;;;;0.20;0.10;;;;;;;;;;4982429;28;20692;-86
2023/12/02 15:50:40;;;;;;;0.20;0.10;;;;;;;;;;4980377;28;20121;-87
2023/12/02 15:53:21;;;;;;;0.30;0.22;;;;;;;;;;4954527;28;20395;-87
2023/12/02 15:56:29;;;;;;;0.20;0.20;;;;;;;;;;4958499;28;20509;-87
2023/12/02 15:59:00;;;;;;;0.20;0.10;;;;;;;;;;4953941;28;20642;-87
2023/12/02 16:01:34;;;;;;;0.20;0.10;;;;;;;;;;4983980;28;20060;-87
2023/12/02 16:04:12;;;;;;;0.20;0.10;;;;;;;;;;4962493;28;20054;-87
2023/12/02 16:06:52;;;;;;;0.20;0.10;;;;;;;;;;4975437;28;20395;-86
2023/12/02 16:09:34;;;;;;;0.20;0.10;;;;;;;;;;4982835;28;20041;-88
2023/12/02 16:12:06;;;;;;;0.35;0.30;;;;;;;;;;4980490;28;20077;-86
2023/12/02 16:14:35;;;;;;;0.20;0.10;;;;;;;;;;4967651;28;20037;-87
2023/12/02 16:17:08;;;;;;;0.20;0.00;;;;;;;;;;4956431;28;20089;-88
2023/12/02 16:19:42;;;;;;;;;;;;;;;;;;4992609;28;20442;-86
2023/12/02 16:22:18;;;;;;;0.20;0.10;;;;;;;;;;4953191;28;19918;-87
2023/12/02 16:25:03;;;;;;;0.20;0.10;;;;;;;;;;4984511;28;20053;-87
2023/12/02 16:27:59;;;;;;;0.20;0.13;;;;;;;;;;4983154;28;20518;-86
2023/12/02 16:30:28;;;;;;;0.20;0.00;;;;;;;;;;4970184;28;20034;-86
2023/12/02 16:33:04;;;;;;;0.20;0.10;;;;;;;;;;4977061;28;20499;-88